sensor_id;sensor_type;location;lat;lon;timestamp;P1;durP1;ratioP1;P2;durP2;ratioP2
11970;SDS011;6045;42.682;23.294;2023-04-03T00:01:38;1.17;;;0.60;;
11970;SDS011;6045;42.682;23.294;2023-04-03T00:04:05;2.03;;;0.93;;
11970;SDS011;6045;42.682;23.294;2023-04-03T00:06:32;1.47;;;1.33;;
11970;SDS011;6045;42.682;23.294;2023-04-03T00:09:00;1.23;;;0.83;;
11970;SDS011;6045;42.682;23.294;2023-04-03T00:11:26;0.80;;;0.80;;
11970;SDS011;6045;42.682;23.294;2023-04-03T00:13:53;1.63;;;1.10;;
11970;SDS011;6045;42.682;23.294;2023-04-03T00:16:21;1.00;;;0.90;;
11970;SDS011;6045;42.682;23.294;2023-04-03T00:18:48;1.03;;;0.93;;
11970;SDS011;6045;42.682;23.294;2023-04-03T00:21:15;1.30;;;0.90;;
11970;SDS011;6045;42.682;23.294;2023-04-03T00:23:42;0.73;;;0.73;;
11970;SDS011;6045;42.682;23.294;2023-04-03T00:26:09;1.40;;;1.30;;
11970;SDS011;6045;42.682;23.294;2023-04-03T00:28:36;1.00;;;1.00;;
11970;SDS011;6045;42.682;23.294;2023-04-03T00:31:03;1.47;;;0.83;;
11970;SDS011;6045;42.682;23.294;2023-04-03T00:33:31;2.13;;;0.90;;
11970;SDS011;6045;42.682;23.294;2023-04-03T00:35:58;0.53;;;0.53;;
11970;SDS011;6045;42.682;23.294;2023-04-03T00:38:25;0.63;;;0.63;;
11970;SDS011;6045;42.682;23.294;2023-04-03T00:40:52;0.80;;;0.80;;
11970;SDS011;6045;42.682;23.294;2023-04-03T00:43:19;0.63;;;0.63;;
11970;SDS011;6045;42.682;23.294;2023-04-03T00:45:48;1.40;;;1.30;;
11970;SDS011;6045;42.682;23.294;2023-04-03T00:48:18;0.97;;;0.90;;
11970;SDS011;6045;42.682;23.294;2023-04-03T00:50:50;0.80;;;0.80;;
11970;SDS011;6045;42.682;23.294;2023-04-03T00:53:19;1.20;;;1.00;;
11970;SDS011;6045;42.682;23.294;2023-04-03T00:55:49;1.53;;;0.97;;
11970;SDS011;6045;42.682;23.294;2023-04-03T00:58:19;2.07;;;0.90;;
11970;SDS011;6045;42.682;23.294;2023-04-03T01:00:49;1.23;;;1.00;;
11970;SDS011;6045;42.682;23.294;2023-04-03T01:03:22;1.00;;;0.90;;
11970;SDS011;6045;42.682;23.294;2023-04-03T01:05:50;1.10;;;0.90;;
11970;SDS011;6045;42.682;23.294;2023-04-03T01:08:17;1.13;;;0.53;;
11970;SDS011;6045;42.682;23.294;2023-04-03T01:10:44;2.47;;;1.00;;
11970;SDS011;6045;42.682;23.294;2023-04-03T01:13:19;1.50;;;1.00;;
11970;SDS011;6045;42.682;23.294;2023-04-03T01:15:47;1.00;;;0.90;;
11970;SDS011;6045;42.682;23.294;2023-04-03T01:18:15;4.33;;;0.67;;
11970;SDS011;6045;42.682;23.294;2023-04-03T01:23:43;2.20;;;1.10;;
11970;SDS011;6045;42.682;23.294;2023-04-03T01:26:18;1.70;;;0.87;;
11970;SDS011;6045;42.682;23.294;2023-04-03T01:28:45;0.93;;;0.87;;
11970;SDS011;6045;42.682;23.294;2023-04-03T01:31:14;0.83;;;0.83;;
11970;SDS011;6045;42.682;23.294;2023-04-03T01:33:48;1.33;;;0.90;;
11970;SDS011;6045;42.682;23.294;2023-04-03T01:36:16;0.73;;;0.73;;
11970;SDS011;6045;42.682;23.294;2023-04-03T01:38:45;2.10;;;0.93;;
11970;SDS011;6045;42.682;23.294;2023-04-03T01:41:13;1.03;;;0.97;;
11970;SDS011;6045;42.682;23.294;2023-04-03T01:43:41;1.47;;;1.07;;
11970;SDS011;6045;42.682;23.294;2023-04-03T01:46:07;1.30;;;1.00;;
11970;SDS011;6045;42.682;23.294;2023-04-03T01:48:34;2.03;;;1.67;;
11970;SDS011;6045;42.682;23.294;2023-04-03T01:51:03;1.10;;;1.00;;
11970;SDS011;6045;42.682;23.294;2023-04-03T01:53:30;1.13;;;1.03;;
11970;SDS011;6045;42.682;23.294;2023-04-03T01:55:56;4.37;;;1.83;;
11970;SDS011;6045;42.682;23.294;2023-04-03T01:58:23;1.53;;;1.10;;
11970;SDS011;6045;42.682;23.294;2023-04-03T02:00:50;4.13;;;1.67;;
11970;SDS011;6045;42.682;23.294;2023-04-03T02:03:17;1.93;;;1.83;;
11970;SDS011;6045;42.682;23.294;2023-04-03T02:05:44;1.97;;;1.40;;
11970;SDS011;6045;42.682;23.294;2023-04-03T02:08:12;1.40;;;0.93;;
11970;SDS011;6045;42.682;23.294;2023-04-03T02:10:39;1.63;;;1.40;;
11970;SDS011;6045;42.682;23.294;2023-04-03T02:13:06;1.50;;;1.20;;
11970;SDS011;6045;42.682;23.294;2023-04-03T02:15:32;2.50;;;0.77;;
11970;SDS011;6045;42.682;23.294;2023-04-03T02:17:59;1.80;;;1.23;;
11970;SDS011;6045;42.682;23.294;2023-04-03T02:20:26;2.47;;;1.60;;
11970;SDS011;6045;42.682;23.294;2023-04-03T02:22:53;0.80;;;0.80;;
11970;SDS011;6045;42.682;23.294;2023-04-03T02:25:21;1.33;;;1.10;;
11970;SDS011;6045;42.682;23.294;2023-04-03T02:27:47;1.33;;;1.23;;
11970;SDS011;6045;42.682;23.294;2023-04-03T02:30:14;1.23;;;1.03;;
11970;SDS011;6045;42.682;23.294;2023-04-03T02:32:42;1.30;;;1.07;;
11970;SDS011;6045;42.682;23.294;2023-04-03T02:35:09;1.17;;;1.07;;
11970;SDS011;6045;42.682;23.294;2023-04-03T02:37:36;1.77;;;1.07;;
11970;SDS011;6045;42.682;23.294;2023-04-03T02:40:04;1.30;;;1.20;;
11970;SDS011;6045;42.682;23.294;2023-04-03T02:42:33;0.63;;;0.63;;
11970;SDS011;6045;42.682;23.294;2023-04-03T02:45:00;1.53;;;1.00;;
11970;SDS011;6045;42.682;23.294;2023-04-03T02:47:27;1.87;;;1.33;;
11970;SDS011;6045;42.682;23.294;2023-04-03T02:49:54;1.20;;;1.10;;
11970;SDS011;6045;42.682;23.294;2023-04-03T02:52:21;1.17;;;1.00;;
11970;SDS011;6045;42.682;23.294;2023-04-03T02:54:48;1.53;;;1.20;;
11970;SDS011;6045;42.682;23.294;2023-04-03T02:57:14;1.70;;;1.60;;
11970;SDS011;6045;42.682;23.294;2023-04-03T02:59:42;2.03;;;1.70;;
11970;SDS011;6045;42.682;23.294;2023-04-03T03:02:09;2.10;;;1.33;;
11970;SDS011;6045;42.682;23.294;2023-04-03T03:04:37;2.13;;;1.30;;
11970;SDS011;6045;42.682;23.294;2023-04-03T03:07:04;1.47;;;1.27;;
11970;SDS011;6045;42.682;23.294;2023-04-03T03:09:31;4.20;;;1.57;;
11970;SDS011;6045;42.682;23.294;2023-04-03T03:11:58;4.10;;;1.53;;
11970;SDS011;6045;42.682;23.294;2023-04-03T03:14:25;1.27;;;1.17;;
11970;SDS011;6045;42.682;23.294;2023-04-03T03:16:53;1.53;;;1.43;;
11970;SDS011;6045;42.682;23.294;2023-04-03T03:19:20;1.67;;;1.57;;
11970;SDS011;6045;42.682;23.294;2023-04-03T03:21:47;1.70;;;1.10;;
11970;SDS011;6045;42.682;23.294;2023-04-03T03:24:13;2.87;;;1.57;;
11970;SDS011;6045;42.682;23.294;2023-04-03T03:26:40;1.57;;;1.47;;
11970;SDS011;6045;42.682;23.294;2023-04-03T03:29:07;6.10;;;1.80;;
11970;SDS011;6045;42.682;23.294;2023-04-03T03:31:34;1.53;;;1.40;;
11970;SDS011;6045;42.682;23.294;2023-04-03T03:34:03;2.93;;;1.53;;
11970;SDS011;6045;42.682;23.294;2023-04-03T03:36:30;2.10;;;1.90;;
11970;SDS011;6045;42.682;23.294;2023-04-03T03:38:56;4.23;;;1.27;;
11970;SDS011;6045;42.682;23.294;2023-04-03T03:41:23;2.93;;;1.87;;
11970;SDS011;6045;42.682;23.294;2023-04-03T03:43:50;1.60;;;1.50;;
11970;SDS011;6045;42.682;23.294;2023-04-03T03:46:17;2.17;;;1.13;;
11970;SDS011;6045;42.682;23.294;2023-04-03T03:48:44;2.17;;;1.30;;
11970;SDS011;6045;42.682;23.294;2023-04-03T03:51:12;3.93;;;1.67;;
11970;SDS011;6045;42.682;23.294;2023-04-03T03:53:38;1.90;;;1.73;;
11970;SDS011;6045;42.682;23.294;2023-04-03T03:56:06;1.80;;;1.70;;
11970;SDS011;6045;42.682;23.294;2023-04-03T03:58:33;1.90;;;1.33;;
11970;SDS011;6045;42.682;23.294;2023-04-03T04:01:00;2.20;;;1.77;;
11970;SDS011;6045;42.682;23.294;2023-04-03T04:03:30;2.10;;;1.90;;
11970;SDS011;6045;42.682;23.294;2023-04-03T04:06:03;2.03;;;1.63;;
11970;SDS011;6045;42.682;23.294;2023-04-03T04:08:31;2.33;;;1.87;;
11970;SDS011;6045;42.682;23.294;2023-04-03T04:10:58;1.97;;;1.77;;
11970;SDS011;6045;42.682;23.294;2023-04-03T04:13:25;3.53;;;2.40;;
11970;SDS011;6045;42.682;23.294;2023-04-03T04:15:52;4.93;;;2.70;;
11970;SDS011;6045;42.682;23.294;2023-04-03T04:18:19;2.07;;;1.77;;
11970;SDS011;6045;42.682;23.294;2023-04-03T04:20:47;2.13;;;1.97;;
11970;SDS011;6045;42.682;23.294;2023-04-03T04:23:16;1.80;;;1.30;;
11970;SDS011;6045;42.682;23.294;2023-04-03T04:25:45;2.17;;;1.97;;
11970;SDS011;6045;42.682;23.294;2023-04-03T04:28:13;1.83;;;1.73;;
11970;SDS011;6045;42.682;23.294;2023-04-03T04:30:40;5.47;;;1.80;;
11970;SDS011;6045;42.682;23.294;2023-04-03T04:33:07;1.67;;;1.57;;
11970;SDS011;6045;42.682;23.294;2023-04-03T04:35:34;2.30;;;1.63;;
11970;SDS011;6045;42.682;23.294;2023-04-03T04:38:01;3.23;;;1.77;;
11970;SDS011;6045;42.682;23.294;2023-04-03T04:40:28;2.97;;;2.03;;
11970;SDS011;6045;42.682;23.294;2023-04-03T04:42:56;2.77;;;1.73;;
11970;SDS011;6045;42.682;23.294;2023-04-03T04:45:23;2.57;;;1.50;;
11970;SDS011;6045;42.682;23.294;2023-04-03T04:47:50;2.07;;;1.87;;
11970;SDS011;6045;42.682;23.294;2023-04-03T04:50:17;5.73;;;2.60;;
11970;SDS011;6045;42.682;23.294;2023-04-03T04:52:44;3.33;;;2.27;;
11970;SDS011;6045;42.682;23.294;2023-04-03T04:55:11;3.70;;;3.33;;
11970;SDS011;6045;42.682;23.294;2023-04-03T04:57:38;4.63;;;2.93;;
11970;SDS011;6045;42.682;23.294;2023-04-03T05:00:07;3.97;;;2.83;;
11970;SDS011;6045;42.682;23.294;2023-04-03T05:02:34;3.43;;;2.43;;
11970;SDS011;6045;42.682;23.294;2023-04-03T05:05:01;5.63;;;3.30;;
11970;SDS011;6045;42.682;23.294;2023-04-03T05:07:28;6.60;;;3.53;;
11970;SDS011;6045;42.682;23.294;2023-04-03T05:09:55;2.70;;;2.50;;
11970;SDS011;6045;42.682;23.294;2023-04-03T05:12:21;3.40;;;2.47;;
11970;SDS011;6045;42.682;23.294;2023-04-03T05:14:48;4.90;;;2.90;;
11970;SDS011;6045;42.682;23.294;2023-04-03T05:17:17;4.60;;;2.87;;
11970;SDS011;6045;42.682;23.294;2023-04-03T05:19:43;8.47;;;3.00;;
11970;SDS011;6045;42.682;23.294;2023-04-03T05:22:10;6.20;;;4.13;;
11970;SDS011;6045;42.682;23.294;2023-04-03T05:24:37;8.10;;;3.73;;
11970;SDS011;6045;42.682;23.294;2023-04-03T05:27:04;4.80;;;3.77;;
11970;SDS011;6045;42.682;23.294;2023-04-03T05:29:30;4.63;;;3.90;;
11970;SDS011;6045;42.682;23.294;2023-04-03T05:31:57;5.90;;;3.60;;
11970;SDS011;6045;42.682;23.294;2023-04-03T05:34:25;6.40;;;3.33;;
11970;SDS011;6045;42.682;23.294;2023-04-03T05:36:53;5.23;;;3.30;;
11970;SDS011;6045;42.682;23.294;2023-04-03T05:39:19;4.63;;;3.00;;
11970;SDS011;6045;42.682;23.294;2023-04-03T05:41:47;6.83;;;4.30;;
11970;SDS011;6045;42.682;23.294;2023-04-03T05:44:14;4.73;;;3.73;;
11970;SDS011;6045;42.682;23.294;2023-04-03T05:46:41;5.67;;;4.03;;
11970;SDS011;6045;42.682;23.294;2023-04-03T05:49:07;8.37;;;4.57;;
11970;SDS011;6045;42.682;23.294;2023-04-03T05:51:36;6.13;;;3.37;;
11970;SDS011;6045;42.682;23.294;2023-04-03T05:54:06;5.57;;;3.93;;
11970;SDS011;6045;42.682;23.294;2023-04-03T05:56:37;6.20;;;4.37;;
11970;SDS011;6045;42.682;23.294;2023-04-03T05:59:04;4.23;;;3.43;;
11970;SDS011;6045;42.682;23.294;2023-04-03T06:01:30;5.77;;;3.40;;
11970;SDS011;6045;42.682;23.294;2023-04-03T06:03:57;3.53;;;2.93;;
11970;SDS011;6045;42.682;23.294;2023-04-03T06:06:24;7.83;;;3.20;;
11970;SDS011;6045;42.682;23.294;2023-04-03T06:08:52;4.73;;;2.60;;
11970;SDS011;6045;42.682;23.294;2023-04-03T06:11:22;2.63;;;1.90;;
11970;SDS011;6045;42.682;23.294;2023-04-03T06:13:49;5.17;;;3.10;;
11970;SDS011;6045;42.682;23.294;2023-04-03T06:16:15;5.10;;;2.93;;
11970;SDS011;6045;42.682;23.294;2023-04-03T06:18:43;4.37;;;3.17;;
11970;SDS011;6045;42.682;23.294;2023-04-03T06:21:10;5.97;;;2.50;;
11970;SDS011;6045;42.682;23.294;2023-04-03T06:23:37;4.23;;;3.50;;
11970;SDS011;6045;42.682;23.294;2023-04-03T06:26:05;3.33;;;2.80;;
11970;SDS011;6045;42.682;23.294;2023-04-03T06:28:32;3.80;;;2.30;;
11970;SDS011;6045;42.682;23.294;2023-04-03T06:30:59;7.60;;;5.13;;
11970;SDS011;6045;42.682;23.294;2023-04-03T06:33:25;4.23;;;3.10;;
11970;SDS011;6045;42.682;23.294;2023-04-03T06:35:55;6.90;;;4.93;;
11970;SDS011;6045;42.682;23.294;2023-04-03T06:38:23;10.47;;;5.53;;
11970;SDS011;6045;42.682;23.294;2023-04-03T06:40:50;6.83;;;4.73;;
11970;SDS011;6045;42.682;23.294;2023-04-03T06:43:19;5.50;;;4.07;;
11970;SDS011;6045;42.682;23.294;2023-04-03T06:45:46;6.97;;;4.30;;
11970;SDS011;6045;42.682;23.294;2023-04-03T06:48:13;5.40;;;3.47;;
11970;SDS011;6045;42.682;23.294;2023-04-03T06:50:40;7.33;;;4.47;;
11970;SDS011;6045;42.682;23.294;2023-04-03T06:53:07;4.40;;;3.77;;
11970;SDS011;6045;42.682;23.294;2023-04-03T06:55:35;4.73;;;3.40;;
11970;SDS011;6045;42.682;23.294;2023-04-03T06:58:02;7.27;;;3.83;;
11970;SDS011;6045;42.682;23.294;2023-04-03T07:00:31;5.60;;;3.83;;
11970;SDS011;6045;42.682;23.294;2023-04-03T07:02:57;12.00;;;4.13;;
11970;SDS011;6045;42.682;23.294;2023-04-03T07:05:27;8.93;;;4.20;;
11970;SDS011;6045;42.682;23.294;2023-04-03T07:07:54;5.27;;;3.63;;
11970;SDS011;6045;42.682;23.294;2023-04-03T07:10:21;5.90;;;3.47;;
11970;SDS011;6045;42.682;23.294;2023-04-03T07:12:47;4.33;;;3.13;;
11970;SDS011;6045;42.682;23.294;2023-04-03T07:15:15;3.07;;;2.70;;
11970;SDS011;6045;42.682;23.294;2023-04-03T07:17:43;1.57;;;1.20;;
11970;SDS011;6045;42.682;23.294;2023-04-03T07:20:10;2.20;;;2.00;;
11970;SDS011;6045;42.682;23.294;2023-04-03T07:22:37;2.37;;;1.87;;
11970;SDS011;6045;42.682;23.294;2023-04-03T07:25:04;2.30;;;1.97;;
11970;SDS011;6045;42.682;23.294;2023-04-03T07:27:32;2.53;;;2.23;;
11970;SDS011;6045;42.682;23.294;2023-04-03T07:29:59;3.33;;;2.20;;
11970;SDS011;6045;42.682;23.294;2023-04-03T07:32:26;4.17;;;3.00;;
11970;SDS011;6045;42.682;23.294;2023-04-03T07:34:54;2.80;;;2.50;;
11970;SDS011;6045;42.682;23.294;2023-04-03T07:37:21;2.37;;;1.83;;
11970;SDS011;6045;42.682;23.294;2023-04-03T07:39:48;2.30;;;1.70;;
11970;SDS011;6045;42.682;23.294;2023-04-03T07:42:16;2.20;;;2.00;;
11970;SDS011;6045;42.682;23.294;2023-04-03T07:44:43;3.67;;;1.83;;
11970;SDS011;6045;42.682;23.294;2023-04-03T07:47:10;1.53;;;1.43;;
11970;SDS011;6045;42.682;23.294;2023-04-03T07:49:39;3.07;;;2.80;;
11970;SDS011;6045;42.682;23.294;2023-04-03T07:52:07;3.87;;;2.70;;
11970;SDS011;6045;42.682;23.294;2023-04-03T07:54:35;4.20;;;3.67;;
11970;SDS011;6045;42.682;23.294;2023-04-03T07:57:02;4.83;;;3.73;;
11970;SDS011;6045;42.682;23.294;2023-04-03T07:59:30;6.70;;;4.20;;
11970;SDS011;6045;42.682;23.294;2023-04-03T08:01:57;4.40;;;3.43;;
11970;SDS011;6045;42.682;23.294;2023-04-03T08:04:23;5.20;;;4.20;;
11970;SDS011;6045;42.682;23.294;2023-04-03T08:06:51;4.93;;;3.73;;
11970;SDS011;6045;42.682;23.294;2023-04-03T08:09:19;6.50;;;4.00;;
11970;SDS011;6045;42.682;23.294;2023-04-03T08:11:46;5.60;;;4.27;;
11970;SDS011;6045;42.682;23.294;2023-04-03T08:14:13;4.87;;;3.77;;
11970;SDS011;6045;42.682;23.294;2023-04-03T08:16:43;6.47;;;4.17;;
11970;SDS011;6045;42.682;23.294;2023-04-03T08:19:11;5.97;;;4.30;;
11970;SDS011;6045;42.682;23.294;2023-04-03T08:21:39;5.47;;;3.70;;
11970;SDS011;6045;42.682;23.294;2023-04-03T08:24:06;5.07;;;3.30;;
11970;SDS011;6045;42.682;23.294;2023-04-03T08:26:35;6.57;;;3.60;;
11970;SDS011;6045;42.682;23.294;2023-04-03T08:29:02;10.90;;;4.13;;
11970;SDS011;6045;42.682;23.294;2023-04-03T08:31:29;4.23;;;3.57;;
11970;SDS011;6045;42.682;23.294;2023-04-03T08:33:56;5.53;;;4.87;;
11970;SDS011;6045;42.682;23.294;2023-04-03T08:36:25;7.60;;;4.50;;
11970;SDS011;6045;42.682;23.294;2023-04-03T08:38:53;7.37;;;4.67;;
11970;SDS011;6045;42.682;23.294;2023-04-03T08:41:26;6.77;;;4.50;;
11970;SDS011;6045;42.682;23.294;2023-04-03T08:44:00;4.27;;;3.80;;
11970;SDS011;6045;42.682;23.294;2023-04-03T08:46:37;10.53;;;4.47;;
11970;SDS011;6045;42.682;23.294;2023-04-03T08:49:14;7.20;;;3.60;;
11970;SDS011;6045;42.682;23.294;2023-04-03T08:51:48;8.67;;;4.87;;
11970;SDS011;6045;42.682;23.294;2023-04-03T08:54:20;8.13;;;4.27;;
11970;SDS011;6045;42.682;23.294;2023-04-03T08:56:52;8.07;;;4.83;;
11970;SDS011;6045;42.682;23.294;2023-04-03T08:59:22;4.47;;;3.73;;
11970;SDS011;6045;42.682;23.294;2023-04-03T09:01:54;10.63;;;5.43;;
11970;SDS011;6045;42.682;23.294;2023-04-03T09:04:23;9.13;;;5.93;;
11970;SDS011;6045;42.682;23.294;2023-04-03T09:06:55;12.13;;;6.57;;
11970;SDS011;6045;42.682;23.294;2023-04-03T09:09:30;10.33;;;6.47;;
11970;SDS011;6045;42.682;23.294;2023-04-03T09:12:03;7.63;;;6.00;;
11970;SDS011;6045;42.682;23.294;2023-04-03T09:14:41;11.57;;;7.00;;
11970;SDS011;6045;42.682;23.294;2023-04-03T09:17:20;7.00;;;5.93;;
11970;SDS011;6045;42.682;23.294;2023-04-03T09:19:54;7.87;;;5.70;;
11970;SDS011;6045;42.682;23.294;2023-04-03T09:22:25;8.07;;;4.93;;
11970;SDS011;6045;42.682;23.294;2023-04-03T09:24:55;8.67;;;4.83;;
11970;SDS011;6045;42.682;23.294;2023-04-03T09:27:26;7.40;;;4.33;;
11970;SDS011;6045;42.682;23.294;2023-04-03T09:29:54;7.43;;;5.47;;
11970;SDS011;6045;42.682;23.294;2023-04-03T09:32:25;7.73;;;4.40;;
11970;SDS011;6045;42.682;23.294;2023-04-03T09:34:54;5.37;;;4.33;;
11970;SDS011;6045;42.682;23.294;2023-04-03T09:37:33;5.40;;;3.00;;
11970;SDS011;6045;42.682;23.294;2023-04-03T09:40:06;3.70;;;2.30;;
11970;SDS011;6045;42.682;23.294;2023-04-03T09:43:19;6.10;;;3.60;;
11970;SDS011;6045;42.682;23.294;2023-04-03T09:45:49;3.80;;;3.00;;
11970;SDS011;6045;42.682;23.294;2023-04-03T09:48:17;8.53;;;4.20;;
11970;SDS011;6045;42.682;23.294;2023-04-03T09:50:53;7.10;;;4.20;;
11970;SDS011;6045;42.682;23.294;2023-04-03T09:53:29;5.33;;;4.30;;
11970;SDS011;6045;42.682;23.294;2023-04-03T09:56:02;6.27;;;4.07;;
11970;SDS011;6045;42.682;23.294;2023-04-03T09:58:37;5.07;;;4.37;;
11970;SDS011;6045;42.682;23.294;2023-04-03T10:01:09;5.97;;;3.77;;
11970;SDS011;6045;42.682;23.294;2023-04-03T10:03:51;3.07;;;2.77;;
11970;SDS011;6045;42.682;23.294;2023-04-03T10:06:31;6.20;;;4.13;;
11970;SDS011;6045;42.682;23.294;2023-04-03T10:09:01;4.43;;;3.50;;
11970;SDS011;6045;42.682;23.294;2023-04-03T10:11:30;3.87;;;2.73;;
11970;SDS011;6045;42.682;23.294;2023-04-03T10:13:57;5.27;;;2.97;;
11970;SDS011;6045;42.682;23.294;2023-04-03T10:16:28;3.40;;;2.80;;
11970;SDS011;6045;42.682;23.294;2023-04-03T10:19:05;3.43;;;2.73;;
11970;SDS011;6045;42.682;23.294;2023-04-03T10:21:46;3.23;;;2.53;;
11970;SDS011;6045;42.682;23.294;2023-04-03T10:24:18;4.40;;;3.13;;
11970;SDS011;6045;42.682;23.294;2023-04-03T10:26:52;4.50;;;2.60;;
11970;SDS011;6045;42.682;23.294;2023-04-03T10:29:30;5.13;;;2.70;;
11970;SDS011;6045;42.682;23.294;2023-04-03T10:32:11;5.23;;;2.63;;
11970;SDS011;6045;42.682;23.294;2023-04-03T10:34:49;4.13;;;3.10;;
11970;SDS011;6045;42.682;23.294;2023-04-03T10:37:24;5.93;;;3.23;;
11970;SDS011;6045;42.682;23.294;2023-04-03T10:39:54;2.87;;;2.13;;
11970;SDS011;6045;42.682;23.294;2023-04-03T10:42:28;3.07;;;2.13;;
11970;SDS011;6045;42.682;23.294;2023-04-03T10:45:03;3.10;;;2.00;;
11970;SDS011;6045;42.682;23.294;2023-04-03T10:47:46;6.63;;;3.20;;
11970;SDS011;6045;42.682;23.294;2023-04-03T10:50:28;3.00;;;2.20;;
11970;SDS011;6045;42.682;23.294;2023-04-03T10:53:05;2.93;;;2.67;;
11970;SDS011;6045;42.682;23.294;2023-04-03T10:55:38;2.27;;;2.07;;
11970;SDS011;6045;42.682;23.294;2023-04-03T10:58:17;2.60;;;2.40;;
11970;SDS011;6045;42.682;23.294;2023-04-03T11:00:48;1.93;;;1.73;;
11970;SDS011;6045;42.682;23.294;2023-04-03T11:03:23;2.20;;;1.80;;
11970;SDS011;6045;42.682;23.294;2023-04-03T11:05:57;1.90;;;1.60;;
11970;SDS011;6045;42.682;23.294;2023-04-03T11:08:28;1.20;;;1.00;;
11970;SDS011;6045;42.682;23.294;2023-04-03T11:11:00;2.43;;;1.60;;
11970;SDS011;6045;42.682;23.294;2023-04-03T11:13:33;2.10;;;1.67;;
11970;SDS011;6045;42.682;23.294;2023-04-03T11:16:05;2.27;;;1.43;;
11970;SDS011;6045;42.682;23.294;2023-04-03T11:18:35;2.13;;;1.20;;
11970;SDS011;6045;42.682;23.294;2023-04-03T11:21:07;1.10;;;1.00;;
11970;SDS011;6045;42.682;23.294;2023-04-03T11:23:39;1.60;;;0.77;;
11970;SDS011;6045;42.682;23.294;2023-04-03T11:26:08;1.50;;;1.10;;
11970;SDS011;6045;42.682;23.294;2023-04-03T11:28:38;1.93;;;1.17;;
11970;SDS011;6045;42.682;23.294;2023-04-03T11:31:09;1.23;;;1.13;;
11970;SDS011;6045;42.682;23.294;2023-04-03T11:33:49;1.70;;;1.60;;
11970;SDS011;6045;42.682;23.294;2023-04-03T11:36:22;2.93;;;1.20;;
11970;SDS011;6045;42.682;23.294;2023-04-03T11:38:52;1.70;;;1.40;;
11970;SDS011;6045;42.682;23.294;2023-04-03T11:41:26;1.40;;;1.00;;
11970;SDS011;6045;42.682;23.294;2023-04-03T11:43:55;1.87;;;1.30;;
11970;SDS011;6045;42.682;23.294;2023-04-03T11:52:27;2.73;;;1.47;;
11970;SDS011;6045;42.682;23.294;2023-04-03T11:58:19;1.27;;;1.17;;
11970;SDS011;6045;42.682;23.294;2023-04-03T12:00:54;1.80;;;0.90;;
11970;SDS011;6045;42.682;23.294;2023-04-03T12:12:55;0.70;;;0.70;;
11970;SDS011;6045;42.682;23.294;2023-04-03T12:15:26;0.70;;;0.70;;
11970;SDS011;6045;42.682;23.294;2023-04-03T12:21:17;2.93;;;1.33;;
11970;SDS011;6045;42.682;23.294;2023-04-03T12:23:58;1.17;;;1.07;;
11970;SDS011;6045;42.682;23.294;2023-04-03T12:26:30;1.60;;;1.50;;
11970;SDS011;6045;42.682;23.294;2023-04-03T12:29:01;1.37;;;1.27;;
11970;SDS011;6045;42.682;23.294;2023-04-03T12:31:39;1.30;;;1.07;;
11970;SDS011;6045;42.682;23.294;2023-04-03T12:37:09;2.77;;;1.00;;
11970;SDS011;6045;42.682;23.294;2023-04-03T12:39:51;1.13;;;1.03;;
11970;SDS011;6045;42.682;23.294;2023-04-03T12:42:31;1.53;;;1.23;;
11970;SDS011;6045;42.682;23.294;2023-04-03T12:45:10;1.80;;;1.50;;
11970;SDS011;6045;42.682;23.294;2023-04-03T12:47:45;1.20;;;1.10;;
11970;SDS011;6045;42.682;23.294;2023-04-03T12:50:18;1.43;;;1.33;;
11970;SDS011;6045;42.682;23.294;2023-04-03T12:52:51;1.30;;;1.20;;
11970;SDS011;6045;42.682;23.294;2023-04-03T12:55:22;1.67;;;1.37;;
11970;SDS011;6045;42.682;23.294;2023-04-03T12:57:51;1.17;;;1.00;;
11970;SDS011;6045;42.682;23.294;2023-04-03T13:00:18;4.63;;;1.30;;
11970;SDS011;6045;42.682;23.294;2023-04-03T13:02:54;1.30;;;1.20;;
11970;SDS011;6045;42.682;23.294;2023-04-03T13:05:21;1.30;;;1.20;;
11970;SDS011;6045;42.682;23.294;2023-04-03T13:07:49;1.90;;;1.57;;
11970;SDS011;6045;42.682;23.294;2023-04-03T13:10:25;2.10;;;1.60;;
11970;SDS011;6045;42.682;23.294;2023-04-03T13:12:54;1.73;;;1.40;;
11970;SDS011;6045;42.682;23.294;2023-04-03T13:15:24;4.47;;;2.43;;
11970;SDS011;6045;42.682;23.294;2023-04-03T13:17:52;2.27;;;1.80;;
11970;SDS011;6045;42.682;23.294;2023-04-03T13:20:21;2.07;;;1.40;;
11970;SDS011;6045;42.682;23.294;2023-04-03T13:22:52;1.67;;;1.57;;
11970;SDS011;6045;42.682;23.294;2023-04-03T13:25:26;2.83;;;2.00;;
11970;SDS011;6045;42.682;23.294;2023-04-03T13:27:57;3.13;;;1.60;;
11970;SDS011;6045;42.682;23.294;2023-04-03T13:30:27;3.07;;;1.90;;
11970;SDS011;6045;42.682;23.294;2023-04-03T13:32:58;5.10;;;2.00;;
11970;SDS011;6045;42.682;23.294;2023-04-03T13:35:37;1.53;;;1.40;;
11970;SDS011;6045;42.682;23.294;2023-04-03T13:38:07;2.23;;;1.47;;
11970;SDS011;6045;42.682;23.294;2023-04-03T13:40:50;2.50;;;1.67;;
11970;SDS011;6045;42.682;23.294;2023-04-03T13:43:19;1.60;;;1.50;;
11970;SDS011;6045;42.682;23.294;2023-04-03T13:46:01;2.23;;;2.03;;
11970;SDS011;6045;42.682;23.294;2023-04-03T13:48:35;3.67;;;1.97;;
11970;SDS011;6045;42.682;23.294;2023-04-03T13:51:05;1.80;;;1.57;;
11970;SDS011;6045;42.682;23.294;2023-04-03T13:53:43;2.37;;;2.17;;
11970;SDS011;6045;42.682;23.294;2023-04-03T13:56:16;3.10;;;2.27;;
11970;SDS011;6045;42.682;23.294;2023-04-03T13:58:56;1.53;;;1.43;;
11970;SDS011;6045;42.682;23.294;2023-04-03T14:01:26;2.43;;;1.50;;
11970;SDS011;6045;42.682;23.294;2023-04-03T14:04:09;2.13;;;1.70;;
11970;SDS011;6045;42.682;23.294;2023-04-03T14:06:39;2.33;;;2.03;;
11970;SDS011;6045;42.682;23.294;2023-04-03T14:09:06;3.03;;;2.13;;
11970;SDS011;6045;42.682;23.294;2023-04-03T14:11:33;3.10;;;1.90;;
11970;SDS011;6045;42.682;23.294;2023-04-03T14:14:03;1.10;;;1.00;;
11970;SDS011;6045;42.682;23.294;2023-04-03T14:16:37;2.47;;;1.90;;
11970;SDS011;6045;42.682;23.294;2023-04-03T14:19:06;1.47;;;1.30;;
11970;SDS011;6045;42.682;23.294;2023-04-03T14:21:41;2.30;;;1.47;;
11970;SDS011;6045;42.682;23.294;2023-04-03T14:24:08;1.57;;;1.47;;
11970;SDS011;6045;42.682;23.294;2023-04-03T14:26:36;2.47;;;1.90;;
11970;SDS011;6045;42.682;23.294;2023-04-03T14:29:04;1.63;;;1.53;;
11970;SDS011;6045;42.682;23.294;2023-04-03T14:31:31;1.93;;;1.70;;
11970;SDS011;6045;42.682;23.294;2023-04-03T14:33:58;3.53;;;1.93;;
11970;SDS011;6045;42.682;23.294;2023-04-03T14:36:26;2.60;;;2.23;;
11970;SDS011;6045;42.682;23.294;2023-04-03T14:38:55;2.57;;;1.37;;
11970;SDS011;6045;42.682;23.294;2023-04-03T14:41:23;1.47;;;1.37;;
11970;SDS011;6045;42.682;23.294;2023-04-03T14:43:52;2.07;;;1.80;;
11970;SDS011;6045;42.682;23.294;2023-04-03T14:46:22;4.03;;;2.00;;
11970;SDS011;6045;42.682;23.294;2023-04-03T14:48:55;4.43;;;1.00;;
11970;SDS011;6045;42.682;23.294;2023-04-03T14:51:22;2.07;;;1.87;;
11970;SDS011;6045;42.682;23.294;2023-04-03T14:53:53;1.60;;;1.50;;
11970;SDS011;6045;42.682;23.294;2023-04-03T14:56:21;2.03;;;1.63;;
11970;SDS011;6045;42.682;23.294;2023-04-03T14:58:51;1.73;;;1.63;;
11970;SDS011;6045;42.682;23.294;2023-04-03T15:01:22;1.33;;;0.87;;
11970;SDS011;6045;42.682;23.294;2023-04-03T15:03:53;2.17;;;1.43;;
11970;SDS011;6045;42.682;23.294;2023-04-03T15:06:20;1.20;;;1.03;;
11970;SDS011;6045;42.682;23.294;2023-04-03T15:08:47;1.50;;;1.37;;
11970;SDS011;6045;42.682;23.294;2023-04-03T15:11:14;1.30;;;1.20;;
11970;SDS011;6045;42.682;23.294;2023-04-03T15:13:43;1.50;;;1.40;;
11970;SDS011;6045;42.682;23.294;2023-04-03T15:16:12;2.23;;;1.20;;
11970;SDS011;6045;42.682;23.294;2023-04-03T15:18:44;2.33;;;2.13;;
11970;SDS011;6045;42.682;23.294;2023-04-03T15:21:12;2.40;;;1.80;;
11970;SDS011;6045;42.682;23.294;2023-04-03T15:23:39;1.30;;;1.20;;
11970;SDS011;6045;42.682;23.294;2023-04-03T15:26:07;1.80;;;1.17;;
11970;SDS011;6045;42.682;23.294;2023-04-03T15:28:35;1.73;;;1.57;;
11970;SDS011;6045;42.682;23.294;2023-04-03T15:31:04;1.57;;;0.97;;